Time;durP1;ratioP1;P1;durP2;ratioP2;P2;SDS_P1;SDS_P2;PMS_P1;PMS_P2;Temp;Humidity;BMP_temperature;BMP_pressure;BME280_temperature;BME280_humidity;BME280_pressure;Samples;Min_cycle;Max_cycle;Signal;HPM_P1;HPM_P2
2021/05/26 00:00:01;;;;;;;2.35;1.63;;;;;;;9.62;83.59;100488.38;4913938;29;20399;-84
2021/05/26 00:02:27;;;;;;;2.03;1.58;;;;;;;9.63;84.37;100479.56;4896318;29;20055;-84
2021/05/26 00:04:54;;;;;;;1.55;1.33;;;;;;;9.62;85.51;100487.53;4896408;29;20044;-85
2021/05/26 00:07:21;;;;;;;2.33;1.50;;;;;;;9.58;85.43;100490.22;4905807;29;20283;-85
2021/05/26 00:09:47;;;;;;;3.88;1.40;;;;;;;9.63;85.05;100479.56;4894387;29;20756;-84
2021/05/26 00:12:14;;;;;;;3.15;1.63;;;;;;;9.59;85.58;100481.41;4911656;29;20049;-85
2021/05/26 00:14:41;;;;;;;2.15;1.50;;;;;;;9.74;84.00;100482.00;4901357;29;20111;-84
2021/05/26 00:17:07;;;;;;;2.42;1.50;;;;;;;9.75;83.68;100479.34;4895241;29;20040;-85
2021/05/26 00:19:34;;;;;;;3.58;1.73;;;;;;;9.69;84.32;100483.88;4888763;29;20048;-84
2021/05/26 00:22:01;;;;;;;2.78;1.70;;;;;;;9.80;84.22;100477.47;4893664;29;20458;-85
2021/05/26 00:24:28;;;;;;;2.45;1.90;;;;;;;9.83;82.04;100480.03;4895928;29;20080;-85
2021/05/26 00:26:54;;;;;;;1.70;1.40;;;;;;;9.59;82.59;100476.13;4909171;29;20044;-85
2021/05/26 00:29:21;;;;;;;2.65;1.90;;;;;;;9.65;83.96;100479.53;4891429;29;20553;-85
2021/05/26 00:31:48;;;;;;;2.38;1.77;;;;;;;9.63;84.53;100476.06;4893984;29;20041;-84
2021/05/26 00:34:14;;;;;;;2.80;1.90;;;;;;;9.73;84.74;100478.50;4917189;29;20044;-85
2021/05/26 00:36:41;;;;;;;2.45;1.85;;;;;;;9.70;84.68;100472.41;4884757;29;20048;-84
2021/05/26 00:39:08;;;;;;;3.67;2.45;;;;;;;9.80;83.83;100473.97;4902334;29;20458;-84
2021/05/26 00:41:35;;;;;;;2.40;1.63;;;;;;;9.75;84.16;100470.53;4863131;29;20054;-85
2021/05/26 00:44:02;;;;;;;2.45;1.70;;;;;;;9.80;83.10;100466.06;4903232;29;20093;-86
2021/05/26 00:46:29;;;;;;;1.73;1.63;;;;;;;9.70;83.49;100472.41;4895372;29;20047;-84
2021/05/26 00:48:55;;;;;;;2.40;2.10;;;;;;;9.73;82.37;100469.72;4876848;29;20041;-85
2021/05/26 00:51:22;;;;;;;2.00;1.70;;;;;;;9.72;83.93;100468.84;4886141;29;20041;-85
2021/05/26 00:53:48;;;;;;;2.53;1.80;;;;;;;9.66;83.01;100466.31;4895635;23;20052;-82
2021/05/26 00:56:15;;;;;;;2.22;2.03;;;;;;;9.68;83.48;100468.94;4903409;29;20052;-82
2021/05/26 00:58:42;;;;;;;2.65;1.80;;;;;;;9.62;83.98;100462.00;4899078;29;20046;-82
2021/05/26 01:01:08;;;;;;;3.15;1.80;;;;;;;9.60;85.85;100466.47;4906177;29;20501;-82
2021/05/26 01:03:35;;;;;;;2.05;1.70;;;;;;;9.63;83.79;100462.88;4903439;29;20043;-82
2021/05/26 01:06:04;;;;;;;2.30;1.65;;;;;;;9.72;83.25;100455.66;4918040;29;20044;-83
2021/05/26 01:08:30;;;;;;;2.00;1.70;;;;;;;9.64;83.72;100459.34;4906939;29;20178;-81
2021/05/26 01:10:57;;;;;;;2.00;1.70;;;;;;;9.62;84.15;100458.50;4899295;29;20071;-81
2021/05/26 01:13:25;;;;;;;3.72;1.92;;;;;;;9.54;84.68;100456.88;4903453;29;20044;-82
2021/05/26 01:15:51;;;;;;;2.10;1.63;;;;;;;9.52;85.09;100450.78;4901832;29;20521;-82
2021/05/26 01:18:22;;;;;;;2.00;1.77;;;;;;;9.58;85.03;100458.59;4919659;29;20055;-82
2021/05/26 01:20:50;;;;;;;3.03;1.83;;;;;;;9.63;84.40;100453.19;4894953;29;20047;-82
2021/05/26 01:23:17;;;;;;;3.15;1.60;;;;;;;9.63;84.45;100461.13;4895958;29;20055;-82
2021/05/26 01:25:50;;;;;;;5.65;1.75;;;;;;;9.58;83.36;100457.69;4913101;29;20107;-82
2021/05/26 01:28:16;;;;;;;3.80;1.90;;;;;;;9.54;83.17;100454.25;4900767;29;20655;-82
2021/05/26 01:30:44;;;;;;;2.22;1.73;;;;;;;9.55;84.71;100453.34;4908586;29;20043;-82
2021/05/26 01:33:11;;;;;;;1.77;1.67;;;;;;;9.67;84.49;100451.34;4904635;29;20043;-83
2021/05/26 01:35:42;;;;;;;1.98;1.55;;;;;;;9.61;84.48;100457.66;4884636;29;20059;-81
2021/05/26 01:38:13;;;;;;;2.75;1.50;;;;;;;9.67;84.28;100456.63;4898976;29;20051;-82
2021/05/26 01:40:40;;;;;;;3.15;1.80;;;;;;;9.53;85.13;100455.16;4900521;29;20047;-81
2021/05/26 01:43:07;;;;;;;2.88;1.80;;;;;;;9.52;86.28;100450.78;4899138;29;20050;-82
2021/05/26 01:45:34;;;;;;;1.95;1.48;;;;;;;9.62;84.84;100453.22;4894024;29;20561;-81
2021/05/26 01:48:01;;;;;;;1.92;1.73;;;;;;;9.54;85.03;100454.25;4898504;29;20051;-82
2021/05/26 01:50:28;;;;;;;2.55;1.45;;;;;;;9.51;85.68;100454.31;4891416;29;20039;-81
2021/05/26 01:52:59;;;;;;;2.85;1.60;;;;;;;9.64;84.67;100443.50;4896917;29;20047;-82
2021/05/26 01:55:27;;;;;;;3.22;1.67;;;;;;;9.56;83.01;100446.31;4901277;29;20119;-81
2021/05/26 01:57:54;;;;;;;2.13;1.50;;;;;;;9.55;84.96;100441.94;4901635;29;20519;-81
2021/05/26 02:00:20;;;;;;;2.03;1.60;;;;;;;9.50;85.54;100443.78;4899808;29;20043;-82
2021/05/26 02:02:47;;;;;;;1.60;1.35;;;;;;;9.56;84.25;100441.91;4889680;29;20122;-83
2021/05/26 02:05:15;;;;;;;3.10;1.58;;;;;;;9.55;84.65;100442.78;4901548;29;20052;-83
2021/05/26 02:07:41;;;;;;;2.28;1.30;;;;;;;9.55;84.03;100445.44;4914620;29;20048;-83
2021/05/26 02:10:11;;;;;;;2.80;1.77;;;;;;;9.56;84.85;100447.16;4915343;29;20055;-82
2021/05/26 02:12:39;;;;;;;2.33;1.50;;;;;;;9.54;84.89;100446.34;4914454;29;20040;-83
2021/05/26 02:15:08;;;;;;;3.03;1.60;;;;;;;9.54;85.08;100445.47;4916929;29;20048;-82
2021/05/26 02:17:35;;;;;;;3.38;1.50;;;;;;;9.61;84.98;100446.22;4900724;29;20505;-82
2021/05/26 02:20:04;;;;;;;2.28;1.50;;;;;;;9.44;84.45;100439.50;4897501;29;20052;-82
2021/05/26 02:22:30;;;;;;;2.05;1.52;;;;;;;9.53;84.79;100439.31;4892121;29;20036;-82
2021/05/26 02:24:57;;;;;;;2.45;1.38;;;;;;;9.54;85.35;100429.66;4915851;29;20142;-83
2021/05/26 02:27:24;;;;;;;2.78;1.50;;;;;;;9.61;84.56;100441.81;4899474;29;20138;-82
2021/05/26 02:29:51;;;;;;;2.13;1.42;;;;;;;9.47;84.66;100438.56;4896265;29;20143;-83
2021/05/26 02:32:17;;;;;;;3.17;1.55;;;;;;;9.52;85.37;100432.31;4911305;29;20044;-82
2021/05/26 02:34:44;;;;;;;1.55;1.30;;;;;;;9.48;85.66;100438.53;4883803;29;20055;-81
2021/05/26 02:37:11;;;;;;;2.25;1.48;;;;;;;9.43;85.13;100436.91;4911463;29;20055;-82
2021/05/26 02:39:37;;;;;;;1.48;1.23;;;;;;;9.46;84.80;100437.72;4892784;29;20052;-81
2021/05/26 02:42:04;;;;;;;1.67;1.42;;;;;;;9.53;83.97;100434.06;4929344;29;20054;-81
2021/05/26 02:44:31;;;;;;;1.40;1.30;;;;;;;9.44;84.93;100441.28;4896481;29;20051;-81
2021/05/26 02:46:57;;;;;;;2.38;1.52;;;;;;;9.41;84.79;100441.31;4912438;29;20047;-80
2021/05/26 02:49:24;;;;;;;4.53;1.70;;;;;;;9.50;84.22;100438.50;4895777;29;20044;-82
2021/05/26 02:51:51;;;;;;;1.55;1.40;;;;;;;9.45;83.81;100435.97;4913394;29;20048;-81
2021/05/26 02:54:17;;;;;;;2.47;1.42;;;;;;;9.42;85.35;100441.31;4895043;29;20063;-82
2021/05/26 02:56:44;;;;;;;2.92;1.40;;;;;;;9.43;84.33;100450.09;4891811;29;20065;-80
2021/05/26 02:59:11;;;;;;;1.92;1.45;;;;;;;9.38;85.81;100447.53;4898561;29;20043;-82
2021/05/26 03:01:37;;;;;;;1.60;1.35;;;;;;;9.46;84.87;100442.97;4901096;29;20119;-81
2021/05/26 03:04:04;;;;;;;2.55;1.55;;;;;;;9.41;85.19;100438.69;4886050;29;20063;-82
2021/05/26 03:06:31;;;;;;;2.28;1.52;;;;;;;9.36;86.39;100446.69;4878413;29;20050;-82
2021/05/26 03:08:58;;;;;;;2.20;1.40;;;;;;;9.40;85.39;100439.59;4932156;29;20040;-82
2021/05/26 03:11:25;;;;;;;2.47;1.73;;;;;;;9.47;84.70;100439.44;4903013;29;20087;-81
2021/05/26 03:13:51;;;;;;;2.53;1.30;;;;;;;9.38;84.93;100438.75;4933729;29;20050;-81
2021/05/26 03:16:18;;;;;;;1.77;1.60;;;;;;;9.47;85.88;100442.06;4903699;29;20043;-82
2021/05/26 03:18:46;;;;;;;1.75;1.30;;;;;;;9.38;85.09;100444.03;4916925;29;20051;-80
2021/05/26 03:21:13;;;;;;;2.38;1.45;;;;;;;9.40;85.02;100442.22;4924357;29;20040;-81
2021/05/26 03:23:41;;;;;;;4.22;1.65;;;;;;;9.35;85.94;100441.47;4919683;29;20058;-81
2021/05/26 03:26:10;;;;;;;2.83;1.40;;;;;;;9.36;85.97;100438.78;4918980;29;20692;-81
2021/05/26 03:28:37;;;;;;;2.03;1.52;;;;;;;9.46;86.39;100442.13;4884804;29;20075;-80
2021/05/26 03:31:04;;;;;;;1.88;1.60;;;;;;;9.47;85.26;100443.84;4911571;29;20066;-82
2021/05/26 03:33:30;;;;;;;2.35;1.38;;;;;;;9.44;85.74;100443.91;4916457;29;20048;-81
2021/05/26 03:35:57;;;;;;;1.75;1.58;;;;;;;9.38;86.47;100452.81;4919263;29;20382;-81
2021/05/26 03:38:24;;;;;;;3.05;1.40;;;;;;;9.45;86.40;100449.16;4901562;29;20056;-81
2021/05/26 03:40:51;;;;;;;2.70;1.45;;;;;;;9.47;86.34;100444.72;4914239;29;20096;-81
2021/05/26 03:43:17;;;;;;;2.78;1.40;;;;;;;9.44;84.98;100443.91;4901639;29;20052;-80
2021/05/26 03:45:44;;;;;;;1.73;1.63;;;;;;;9.43;84.75;100443.06;4888404;29;20055;-81
2021/05/26 03:48:11;;;;;;;2.80;1.52;;;;;;;9.45;86.75;100435.97;4900908;29;20059;-81
2021/05/26 03:50:39;;;;;;;1.98;1.65;;;;;;;9.52;87.25;100440.22;4903057;29;20548;-82
2021/05/26 03:53:08;;;;;;;1.90;1.70;;;;;;;9.54;84.75;100442.84;4900442;29;20055;-81
2021/05/26 03:55:34;;;;;;;3.08;1.70;;;;;;;9.51;86.36;100441.13;4893038;29;20047;-81
2021/05/26 03:58:01;;;;;;;2.40;1.40;;;;;;;9.48;86.19;100445.59;4918652;29;20417;-82
2021/05/26 04:00:28;;;;;;;2.08;1.40;;;;;;;9.62;85.08;100443.56;4912474;29;20512;-82
2021/05/26 04:02:55;;;;;;;3.13;1.70;;;;;;;9.60;85.48;100445.34;4902055;29;20052;-81
2021/05/26 04:05:21;;;;;;;2.08;1.50;;;;;;;9.65;84.80;100443.47;4886552;29;20052;-82
2021/05/26 04:07:48;;;;;;;3.15;1.60;;;;;;;9.65;85.67;100439.97;4916707;29;20043;-79
2021/05/26 04:10:14;;;;;;;3.50;1.80;;;;;;;9.67;85.05;100440.81;4921108;29;20040;-80
2021/05/26 04:12:41;;;;;;;2.67;1.65;;;;;;;9.78;84.74;100436.19;4900062;29;20416;-81
2021/05/26 04:15:08;;;;;;;2.17;1.65;;;;;;;9.76;85.93;100435.38;4918272;29;20035;-80
2021/05/26 04:17:35;;;;;;;3.58;1.80;;;;;;;9.77;85.73;100440.59;4899957;29;20123;-81
2021/05/26 04:20:04;;;;;;;2.58;1.88;;;;;;;9.88;85.62;100435.97;4886675;29;20047;-80
2021/05/26 04:22:32;;;;;;;2.25;1.83;;;;;;;9.95;86.00;100430.56;4914350;29;20047;-80
2021/05/26 04:24:59;;;;;;;2.10;1.52;;;;;;;9.90;84.60;100435.06;4898324;29;20166;-80
2021/05/26 04:27:26;;;;;;;3.60;1.83;;;;;;;9.82;84.13;100429.94;4894539;29;20084;-80
2021/05/26 04:29:53;;;;;;;2.63;1.92;;;;;;;9.81;85.49;100429.06;4901655;29;21338;-79
2021/05/26 04:32:20;;;;;;;3.15;2.00;;;;;;;9.79;86.97;100419.47;4901520;29;20067;-82
2021/05/26 04:34:47;;;;;;;2.25;1.55;;;;;;;9.75;87.30;100418.69;4902229;29;20051;-81
2021/05/26 04:37:16;;;;;;;3.08;1.85;;;;;;;9.85;87.97;100419.34;4917473;29;20043;-81
2021/05/26 04:39:46;;;;;;;1.90;1.70;;;;;;;9.85;87.24;100420.22;4899450;29;20048;-81
2021/05/26 04:42:12;;;;;;;30.27;16.40;;;;;;;9.85;87.51;100419.34;4886981;29;20453;-81
2021/05/26 04:44:40;;;;;;;128.90;76.00;;;;;;;9.85;86.79;100414.06;4893784;29;20674;-80
2021/05/26 04:47:06;;;;;;;31.40;21.42;;;;;;;9.79;88.04;100422.09;4916301;29;20516;-81
2021/05/26 04:49:33;;;;;;;8.30;5.35;;;;;;;9.86;88.80;100413.16;4900756;29;20048;-82
2021/05/26 04:52:00;;;;;;;7.57;6.07;;;;;;;9.85;86.70;100411.44;4897434;29;20040;-81
2021/05/26 04:54:26;;;;;;;3.65;2.28;;;;;;;9.79;85.65;100407.13;4884985;29;20051;-81
2021/05/26 04:56:53;;;;;;;2.47;1.88;;;;;;;9.88;86.31;100408.72;4917461;29;20556;-82
2021/05/26 04:59:20;;;;;;;2.03;1.65;;;;;;;9.94;86.24;100407.72;4899693;29;20807;-81
2021/05/26 05:01:47;;;;;;;5.00;1.77;;;;;;;9.99;86.11;100406.69;4912993;29;20048;-81
2021/05/26 05:04:13;;;;;;;2.72;2.00;;;;;;;10.09;85.39;100408.25;4897084;29;20055;-81
2021/05/26 05:06:40;;;;;;;2.67;1.88;;;;;;;10.10;86.19;100414.41;4898014;29;20075;-81
2021/05/26 05:09:08;;;;;;;3.72;2.40;;;;;;;10.15;84.70;100412.50;4887036;29;20107;-81
2021/05/26 05:11:36;;;;;;;2.58;1.98;;;;;;;10.12;84.64;100417.88;4903633;29;20052;-81
2021/05/26 05:14:03;;;;;;;3.78;2.22;;;;;;;10.11;85.41;100410.84;4915849;29;20126;-81
2021/05/26 05:16:30;;;;;;;3.40;2.05;;;;;;;10.02;86.86;100409.28;4913204;29;20413;-81
2021/05/26 05:18:57;;;;;;;3.17;2.25;;;;;;;10.16;85.56;100409.81;4896433;29;20084;-81
2021/05/26 05:21:29;;;;;;;2.55;2.17;;;;;;;10.13;85.03;100412.53;4900431;29;20044;-81
2021/05/26 05:23:55;;;;;;;3.30;2.08;;;;;;;10.14;86.22;100409.00;4883959;29;20059;-81
2021/05/26 05:26:22;;;;;;;2.75;2.17;;;;;;;10.16;86.37;100403.69;4915816;29;20048;-81
2021/05/26 05:28:48;;;;;;;2.33;1.95;;;;;;;10.13;86.92;100409.91;4915120;29;20048;-80
2021/05/26 05:31:15;;;;;;;4.10;2.10;;;;;;;10.24;86.39;100406.19;4932176;29;20084;-81
2021/05/26 05:33:42;;;;;;;4.07;2.35;;;;;;;10.26;85.96;100409.69;4883489;29;20122;-81
2021/05/26 05:36:09;;;;;;;2.00;1.80;;;;;;;10.24;85.67;100407.03;4900625;29;20056;-81
2021/05/26 05:38:36;;;;;;;3.80;1.80;;;;;;;10.30;86.65;100404.28;4914901;29;20044;-81
2021/05/26 05:41:03;;;;;;;2.47;2.28;;;;;;;10.29;85.34;100413.09;4932034;29;20048;-80
2021/05/26 05:43:30;;;;;;;2.92;2.33;;;;;;;10.35;83.69;100405.03;4896391;29;20044;-83
2021/05/26 05:45:56;;;;;;;7.30;2.10;;;;;;;10.24;84.46;100409.69;4887748;29;20055;-81
2021/05/26 05:48:23;;;;;;;3.22;2.00;;;;;;;10.27;85.27;100404.34;4918569;29;20040;-81
2021/05/26 05:50:50;;;;;;;2.85;1.90;;;;;;;10.24;85.41;100412.31;4916570;29;20541;-81
2021/05/26 05:53:17;;;;;;;5.25;1.83;;;;;;;10.34;83.67;100410.34;4900033;29;20074;-80
2021/05/26 05:55:43;;;;;;;4.53;2.28;;;;;;;10.39;83.90;100403.19;4912882;29;20048;-80
2021/05/26 05:58:11;;;;;;;4.60;2.47;;;;;;;10.33;83.01;100396.25;4895963;29;20048;-80
2021/05/26 06:00:39;;;;;;;2.13;1.70;;;;;;;10.31;83.95;100407.78;4915582;29;20056;-81
2021/05/26 06:03:05;;;;;;;2.20;1.90;;;;;;;10.32;81.63;100405.09;4914783;29;20132;-80
2021/05/26 06:05:32;;;;;;;2.70;2.08;;;;;;;10.36;84.65;100401.50;4913466;29;20062;-81
2021/05/26 06:07:59;;;;;;;4.63;2.20;;;;;;;10.44;83.54;100403.97;4914185;29;20054;-81
2021/05/26 06:10:26;;;;;;;4.03;2.15;;;;;;;10.40;85.41;100399.63;4915997;29;20056;-80
2021/05/26 06:12:56;;;;;;;3.58;1.90;;;;;;;10.40;84.73;100403.13;4914630;29;20051;-81
2021/05/26 06:15:23;;;;;;;2.10;1.77;;;;;;;10.52;83.66;100407.28;4916160;29;20044;-82
2021/05/26 06:17:50;;;;;;;2.97;2.03;;;;;;;10.58;84.56;100400.97;4913970;29;20052;-81
2021/05/26 06:20:17;;;;;;;2.40;2.20;;;;;;;10.70;83.44;100400.66;4917890;29;20047;-81
2021/05/26 06:22:45;;;;;;;3.95;2.30;;;;;;;10.73;82.31;100400.59;4911171;29;20047;-80
2021/05/26 06:25:13;;;;;;;4.28;2.20;;;;;;;10.80;83.10;100396.03;4914074;29;20095;-80
2021/05/26 06:27:39;;;;;;;3.70;2.35;;;;;;;10.93;83.03;100393.03;4910866;29;20079;-81
2021/05/26 06:30:07;;;;;;;2.33;2.00;;;;;;;11.11;81.98;100399.59;4897829;29;20047;-81
2021/05/26 06:32:34;;;;;;;4.35;2.40;;;;;;;11.10;80.62;100402.25;4883608;29;20055;-81
2021/05/26 06:35:02;;;;;;;2.15;1.95;;;;;;;11.17;80.55;100395.91;4897774;29;20044;-81
2021/05/26 06:37:29;;;;;;;3.40;2.08;;;;;;;11.23;81.12;100399.25;4904684;29;20713;-81
2021/05/26 06:39:55;;;;;;;4.47;2.13;;;;;;;11.43;79.42;100400.47;4905228;29;20078;-80
2021/05/26 06:42:22;;;;;;;3.47;2.47;;;;;;;11.55;78.22;100402.78;4923605;29;20063;-80
2021/05/26 06:44:49;;;;;;;3.60;2.33;;;;;;;11.61;77.62;100401.75;4921458;29;20044;-81
2021/05/26 06:47:15;;;;;;;4.28;2.53;;;;;;;11.57;76.93;100400.97;4904055;29;20060;-81
2021/05/26 06:49:42;;;;;;;3.25;2.45;;;;;;;11.59;77.88;100398.25;4911840;29;20055;-81
2021/05/26 06:52:09;;;;;;;2.83;2.53;;;;;;;11.51;77.78;100407.28;4920425;29;20058;-81
2021/05/26 06:54:36;;;;;;;4.05;2.55;;;;;;;11.43;78.44;100406.63;4936648;29;20047;-81
2021/05/26 06:57:02;;;;;;;2.53;1.95;;;;;;;11.28;78.42;100404.44;4920450;29;20055;-80
2021/05/26 06:59:29;;;;;;;3.40;2.58;;;;;;;11.26;80.91;100407.09;4917236;29;20067;-81
2021/05/26 07:01:56;;;;;;;8.27;3.38;;;;;;;11.24;79.17;100413.34;4907025;29;20386;-80
2021/05/26 07:04:24;;;;;;;4.22;2.90;;;;;;;11.05;79.25;100412.97;4905377;29;20052;-80
2021/05/26 07:06:50;;;;;;;4.88;3.10;;;;;;;10.95;81.99;100407.06;4920941;29;20048;-80
2021/05/26 07:09:17;;;;;;;4.90;3.33;;;;;;;10.90;80.72;100416.00;4905511;29;20126;-80
2021/05/26 07:11:44;;;;;;;4.22;2.97;;;;;;;10.84;81.19;100416.16;4926249;29;20450;-80
2021/05/26 07:14:11;;;;;;;4.55;2.97;;;;;;;10.77;81.64;100415.47;4921428;29;20051;-81
2021/05/26 07:16:37;;;;;;;4.22;2.70;;;;;;;10.85;83.27;100412.63;4919615;29;20409;-82
2021/05/26 07:19:04;;;;;;;4.63;2.70;;;;;;;10.94;81.76;100405.34;4904270;29;20055;-81
2021/05/26 07:21:31;;;;;;;3.17;2.80;;;;;;;11.01;80.16;100411.31;4921005;29;20052;-82
2021/05/26 07:23:57;;;;;;;4.60;2.75;;;;;;;11.12;81.00;100418.97;4987454;23;20063;-82
2021/05/26 07:26:24;;;;;;;3.85;2.90;;;;;;;11.22;80.38;100416.03;4910031;29;20412;-84
2021/05/26 07:28:51;;;;;;;4.38;3.08;;;;;;;11.35;78.82;100410.41;4919241;29;20058;-85
2021/05/26 07:31:17;;;;;;;4.68;2.63;;;;;;;11.50;78.69;100412.63;4945870;28;20107;-83
2021/05/26 07:33:45;;;;;;;4.35;3.35;;;;;;;11.68;77.18;100404.16;4937676;29;20393;-85
2021/05/26 07:36:13;;;;;;;3.45;2.65;;;;;;;11.75;76.25;100396.91;4907624;29;20044;-84
2021/05/26 07:38:40;;;;;;;4.03;2.70;;;;;;;11.77;75.55;100401.25;4904843;29;20043;-84
2021/05/26 07:41:08;;;;;;;5.03;2.60;;;;;;;11.86;75.06;100402.81;4940890;29;20043;-84
2021/05/26 07:43:35;;;;;;;4.65;2.67;;;;;;;11.96;72.65;100406.91;4937009;29;20044;-84
2021/05/26 07:46:03;;;;;;;3.67;2.35;;;;;;;11.93;72.15;100400.81;4927898;29;20048;-84
2021/05/26 07:48:31;;;;;;;3.42;2.67;;;;;;;11.92;72.72;100401.72;4918086;29;20050;-83
2021/05/26 07:50:58;;;;;;;3.55;2.58;;;;;;;11.94;73.54;100399.91;4936970;29;20058;-83
2021/05/26 07:53:24;;;;;;;3.25;2.40;;;;;;;11.91;72.32;100410.59;4893437;29;20072;-83
2021/05/26 07:55:51;;;;;;;2.75;2.35;;;;;;;11.90;73.57;100404.44;4919861;29;20665;-83
2021/05/26 07:58:18;;;;;;;3.38;2.20;;;;;;;11.62;72.81;100401.72;4905237;29;20055;-83
2021/05/26 08:00:49;;;;;;;2.65;2.20;;;;;;;11.77;72.86;100398.63;4923053;29;20071;-83
2021/05/26 08:03:16;;;;;;;2.53;2.30;;;;;;;11.71;72.29;100397.94;4899727;29;20032;-83
2021/05/26 08:05:43;;;;;;;2.58;2.13;;;;;;;11.77;76.86;100405.66;4922676;29;20039;-83
2021/05/26 08:08:09;;;;;;;2.60;2.08;;;;;;;11.84;73.84;100405.47;4916908;29;20047;-84
2021/05/26 08:10:36;;;;;;;3.92;2.20;;;;;;;12.15;73.42;100403.69;4899265;29;20071;-83
2021/05/26 08:13:04;;;;;;;3.28;1.85;;;;;;;12.42;73.14;100388.69;4916177;29;20042;-83
2021/05/26 08:15:30;;;;;;;6.53;2.20;;;;;;;12.49;69.79;100396.41;4897314;29;20047;-84
2021/05/26 08:17:57;;;;;;;2.38;2.00;;;;;;;12.48;70.17;100385.84;4914536;29;20048;-83
2021/05/26 08:20:24;;;;;;;2.40;2.05;;;;;;;12.53;70.73;100392.75;4904458;29;20043;-83
2021/05/26 08:22:51;;;;;;;4.18;2.05;;;;;;;12.51;69.33;100394.56;4917323;29;20046;-83
2021/05/26 08:25:18;;;;;;;3.90;2.20;;;;;;;12.61;70.71;100392.47;4914395;29;20058;-84
2021/05/26 08:27:45;;;;;;;4.07;2.40;;;;;;;12.80;70.70;100390.97;4914818;29;20052;-84
2021/05/26 08:30:12;;;;;;;3.75;2.40;;;;;;;12.86;70.27;100390.75;4905100;29;20048;-84
2021/05/26 08:32:38;;;;;;;3.30;2.30;;;;;;;12.95;67.08;100387.78;4907467;29;20095;-82
2021/05/26 08:35:06;;;;;;;3.75;2.25;;;;;;;12.96;68.92;100386.88;4899588;29;20051;-83
2021/05/26 08:37:33;;;;;;;2.80;2.20;;;;;;;12.96;69.36;100381.56;4930738;29;20051;-85
2021/05/26 08:40:00;;;;;;;4.75;2.10;;;;;;;13.05;67.93;100383.03;4900731;29;20786;-83
2021/05/26 08:42:26;;;;;;;4.13;2.60;;;;;;;13.20;69.12;100379.88;4915503;29;20044;-84
2021/05/26 08:44:53;;;;;;;4.88;2.50;;;;;;;13.29;65.81;100375.16;4905355;29;20522;-84
2021/05/26 08:47:20;;;;;;;3.22;2.65;;;;;;;13.24;66.83;100375.31;4912186;29;20054;-84
2021/05/26 08:49:48;;;;;;;2.72;2.28;;;;;;;13.13;67.30;100369.50;4929920;29;20666;-83
2021/05/26 08:52:16;;;;;;;2.67;2.30;;;;;;;13.13;67.73;100369.50;4913773;29;20046;-83
2021/05/26 08:54:45;;;;;;;3.85;2.67;;;;;;;13.09;67.73;100373.16;4923363;29;20051;-84
2021/05/26 08:57:15;;;;;;;3.72;2.55;;;;;;;13.06;66.47;100360.03;4890209;29;20075;-82
2021/05/26 08:59:42;;;;;;;3.03;2.30;;;;;;;12.99;68.85;100366.47;4913772;29;20054;-82
2021/05/26 09:02:13;;;;;;;4.47;3.10;;;;;;;13.04;68.44;100365.38;4917436;29;20051;-82
2021/05/26 09:04:41;;;;;;;5.30;3.53;;;;;;;13.09;66.98;100367.84;4892853;28;20415;-83
2021/05/26 09:07:24;;;;;;;3.20;2.25;;;;;;;13.23;67.94;100366.50;4921919;29;20552;-82
2021/05/26 09:10:06;;;;;;;3.83;2.40;;;;;;;13.17;66.12;100368.44;4922254;29;20039;-83
2021/05/26 09:12:40;;;;;;;4.13;2.40;;;;;;;13.51;67.63;100358.38;4912463;29;20087;-83
2021/05/26 09:15:14;;;;;;;4.93;2.75;;;;;;;14.27;66.24;100343.88;4916370;29;20051;-82
2021/05/26 09:17:42;;;;;;;5.30;3.10;;;;;;;14.77;67.45;100345.41;4911355;29;20540;-79
2021/05/26 09:20:25;;;;;;;4.15;2.75;;;;;;;15.02;60.28;100338.09;4921822;29;20294;-83
2021/05/26 09:23:12;;;;;;;3.65;2.60;;;;;;;15.64;63.09;100336.25;4921354;29;20509;-83
2021/05/26 09:25:45;;;;;;;3.47;2.53;;;;;;;16.28;58.07;100334.00;4892430;29;20051;-83
2021/05/26 09:28:29;;;;;;;3.03;2.60;;;;;;;16.18;55.38;100327.41;4913860;29;20068;-82
2021/05/26 09:31:04;;;;;;;3.65;2.50;;;;;;;15.75;55.81;100331.28;4925268;29;20055;-83
2021/05/26 09:33:41;;;;;;;4.20;2.50;;;;;;;15.59;58.75;100330.22;4900646;29;20647;-82
2021/05/26 09:36:09;;;;;;;2.45;2.25;;;;;;;15.20;56.91;100339.06;4921664;29;20223;-82
2021/05/26 09:38:43;;;;;;;4.80;2.63;;;;;;;14.90;58.65;100341.31;4931611;29;20047;-82
2021/05/26 09:41:32;;;;;;;2.72;2.40;;;;;;;14.72;60.95;100350.94;4914871;29;20043;-82
2021/05/26 09:44:00;;;;;;;3.38;2.47;;;;;;;14.45;62.43;100344.97;4889657;29;20048;-82
2021/05/26 09:46:33;;;;;;;3.50;2.30;;;;;;;14.57;67.59;100339.16;4928259;29;20179;-83
2021/05/26 09:49:13;;;;;;;3.80;2.38;;;;;;;14.41;66.98;100337.16;4901348;29;20043;-83
2021/05/26 09:51:51;;;;;;;3.22;2.35;;;;;;;14.14;65.46;100339.16;4903715;29;20070;-82
2021/05/26 09:54:28;;;;;;;4.47;2.63;;;;;;;14.13;67.22;100334.78;4931480;29;20094;-82
2021/05/26 09:57:05;;;;;;;3.00;2.70;;;;;;;14.09;69.92;100329.56;4919526;29;20054;-82
2021/05/26 09:59:33;;;;;;;2.97;2.67;;;;;;;14.04;66.99;100328.91;4913589;29;20063;-83
2021/05/26 10:02:01;;;;;;;3.88;2.50;;;;;;;14.09;69.51;100328.69;4927386;29;20039;-82
2021/05/26 10:04:27;;;;;;;4.07;2.72;;;;;;;14.04;67.73;100318.28;4903197;29;20562;-83
2021/05/26 10:07:05;;;;;;;4.43;2.90;;;;;;;14.00;67.97;100323.75;4921201;29;20394;-83
2021/05/26 10:09:36;;;;;;;4.53;2.60;;;;;;;13.79;68.39;100330.78;4914436;29;20146;-83
2021/05/26 10:12:04;;;;;;;4.35;2.50;;;;;;;13.72;67.88;100329.28;4893786;29;20430;-84
2021/05/26 10:14:35;;;;;;;5.43;2.92;;;;;;;13.58;70.94;100328.94;4929430;29;20902;-82
2021/05/26 10:17:07;;;;;;;5.13;2.95;;;;;;;13.40;71.76;100334.03;4914221;29;20048;-83
2021/05/26 10:19:34;;;;;;;4.03;2.55;;;;;;;13.37;70.86;100346.53;4918988;29;20055;-83
2021/05/26 10:22:01;;;;;;;4.47;2.97;;;;;;;13.24;73.92;100351.44;4909562;29;20046;-84
2021/05/26 10:24:32;;;;;;;3.63;3.25;;;;;;;13.07;73.38;100338.75;4921224;29;20060;-85
2021/05/26 10:27:02;;;;;;;2.47;2.28;;;;;;;13.33;74.45;100327.22;4919276;29;20405;-82
2021/05/26 10:29:29;;;;;;;4.00;2.08;;;;;;;13.69;71.45;100334.69;4895864;28;20050;-82
2021/05/26 10:31:57;;;;;;;3.75;2.47;;;;;;;14.28;73.49;100326.16;4930344;29;20086;-83
2021/05/26 10:34:42;;;;;;;4.80;2.33;;;;;;;15.05;70.67;100319.34;4915275;29;20051;-84
2021/05/26 10:37:10;;;;;;;3.88;2.28;;;;;;;15.17;63.69;100312.63;4904824;29;20082;-84
2021/05/26 10:39:37;;;;;;;4.50;2.20;;;;;;;15.05;62.53;100321.13;4896324;29;20078;-83
2021/05/26 10:42:05;;;;;;;3.33;2.15;;;;;;;14.77;62.66;100321.47;4930619;29;20051;-83
2021/05/26 10:45:05;;;;;;;4.03;2.60;;;;;;;14.95;67.85;100315.34;4931037;29;20059;-83
2021/05/26 10:47:35;;;;;;;3.72;2.47;;;;;;;15.32;65.33;100311.06;4894728;29;20130;-83
2021/05/26 10:50:23;;;;;;;4.07;2.40;;;;;;;16.00;63.12;100294.53;4926626;29;20093;-82
2021/05/26 10:52:56;;;;;;;3.47;2.40;;;;;;;16.38;60.09;100301.56;4902360;29;20100;-83
2021/05/26 10:55:51;;;;;;;3.63;2.08;;;;;;;16.57;58.81;100291.72;4924038;29;20122;-83
2021/05/26 10:58:34;;;;;;;5.63;2.03;;;;;;;16.74;53.99;100298.88;4909199;29;20054;-82
2021/05/26 11:01:04;;;;;;;3.20;1.70;;;;;;;16.91;51.04;100296.19;4912982;29;20043;-81
2021/05/26 11:03:42;;;;;;;3.15;1.70;;;;;;;16.49;49.79;100286.75;4927240;29;20107;-83
2021/05/26 11:06:13;;;;;;;3.33;1.48;;;;;;;16.56;51.83;100301.53;4914459;29;20098;-83
2021/05/26 11:11:26;;;;;;;2.35;1.70;;;;;;;16.07;53.57;100294.25;4923486;29;20065;-82
2021/05/26 11:14:13;;;;;;;5.82;1.50;;;;;;;15.91;51.74;100294.13;4926808;29;20043;-82
2021/05/26 11:16:40;;;;;;;2.55;1.50;;;;;;;15.87;56.55;100282.72;4928505;29;20055;-82
2021/05/26 11:19:17;;;;;;;3.28;1.70;;;;;;;15.99;56.03;100286.63;4923984;28;20070;-83
2021/05/26 11:22:03;;;;;;;2.47;1.80;;;;;;;16.03;54.76;100288.19;4908026;29;20126;-82
2021/05/26 11:24:33;;;;;;;2.72;1.75;;;;;;;16.07;54.71;100291.56;4897881;29;20046;-82
2021/05/26 11:27:01;;;;;;;4.38;1.75;;;;;;;15.94;52.71;100280.63;4915495;29;20039;-82
2021/05/26 11:29:32;;;;;;;2.92;1.40;;;;;;;16.20;55.96;100276.69;4934918;29;20047;-82
2021/05/26 11:32:12;;;;;;;3.25;1.85;;;;;;;16.51;54.86;100281.34;4913347;29;20055;-81
2021/05/26 11:34:41;;;;;;;2.08;1.60;;;;;;;16.83;53.25;100275.25;4907247;29;20051;-83
2021/05/26 11:37:08;;;;;;;3.22;2.00;;;;;;;17.11;50.39;100260.44;4907738;29;20130;-82